Historyczne dane pomiarowe

Dodano dane terminowe – wersja testowa.

Dane z okresu 1951-2019

Wersja bazy: 1.34 [2019-03-16, lista zmian], aktualizacja planowana na 2019-04-15

Dane meteo z obszaru Polski uzyskane na podstawie danych udostępnionych przez Instytut Meteorologii i Gospodarki Wodnej – Państwowy Instytut Badawczy.

 

Wybierz Datę:    

       

TemperaturaWilgotnośćWiatrCiśnienieOpadyŚniegCzas trwania zjawisk
 Stacja t tx tn tng RH VA  wxwx mslp ppp RRR   cm mm wxwxwxwxwxwxwx
1997-09-11 11.9 16.8 8.4 6.4 81.0- 1.0 1.7---- 0.0------------
1997-09-12 14.5 24.6 5.4 3.5 77.8- 0.3 1.0---- 0.0------------
1997-09-13 17.0 24.6 10.7 7.9 82.0- 3.0 1.3---- 3.0------------
1997-09-14 13.2 19.5 10.9 9.9 82.8- 0.7 1.7---- 0.0------------
1997-09-15 10.9 17.5 5.8 2.8 83.0- 1.3 1.3---- 0.0------------
1997-09-16 11.1 20.2 3.5 2.0 83.3- 1.3 0.7---- 0.0------------
1997-09-17 12.8 22.1 5.3 3.2 83.0- 0.7 0.7---- 0.0------------
1997-09-18 13.1 21.6 7.2 5.0 81.3- 2.3 0.7---- 0.0------------
1997-09-19 13.6 20.9 10.1 7.9 93.8- 4.3 2.0---- 7.0------------
1997-09-20 9.2 13.5 6.3 5.0 78.3- 1.3 1.3---- 0.0------------
1997-09-21 8.3 15.3 3.0 0.5 80.8- 1.7 0.7---- 0.0------------
1997-09-22 7.8 16.8 1.5 -0.5 85.0- 2.0 0.7---- 0.0------------
1997-09-23 10.7 19.2 4.0 1.0 83.0- 2.3 0.7---- 0.0------------
1997-09-24 10.4 14.3 8.6 8.1 74.3- 1.7 1.7---- 0.0------------
1997-09-25 10.7 13.8 7.0 4.0 87.8- 4.3 1.3---- 0.0------------
1997-09-26 13.0 18.3 9.9 7.4 86.8- 2.3 2.7---- 0.0------------
1997-09-27 11.7 14.4 10.5 8.7 75.8- 1.7 3.3---- 0.0------------
1997-09-28 10.0 13.4 8.5 5.0 83.3- 3.0 1.0---- 0.0------------
1997-09-29 9.1 16.3 3.0 0.0 82.5- 1.0 0.7---- 0.0------------
1997-09-30 11.3 13.7 7.8 4.5 90.0- 7.7 1.7---- 3.5------------
1997-10-01 10.9 14.6 9.2 5.0 83.0- 2.0 1.3---- 8.5------------
1997-10-02 10.1 12.9 6.8 4.5 87.0- 5.0 2.7---- 6.0------------
1997-10-03 9.5 12.1 8.0 5.9 87.0- 2.7 3.3---- 1.0------------
1997-10-04 9.8 12.4 7.4 5.0 82.8- 3.7 2.7---- 0.0------------
1997-10-05 13.8 17.3 11.0 9.9 78.8- 2.3 8.0---- 0.0------------
1997-10-06 13.2 18.4 10.3 9.9 88.8- 2.7 2.0---- 0.0------------
1997-10-07 13.0 21.7 5.8 3.5 86.3- 2.7 0.7---- 0.0------------
1997-10-08 14.1 20.0 9.5 7.7 89.0- 3.3 0.0---- 0.0------------
1997-10-09 15.9 22.2 9.3 8.1 83.3- 3.3 1.7---- 4.2------------
1997-10-10 16.3 20.2 14.8 10.7 88.3- 2.7 1.3---- 3.5------------
194.8 ms

 

Źródłem pochodzenia danych jest Instytut Meteorologii i Gospodarki Wodnej – Państwowy Instytut Badawczy. Dane Instytutu Meteorologii i Gospodarki Wodnej – Państwowego Instytutu Badawczego zostały przetworzone.

Dane źródłowe można odnaleźć na stronie https://dane.imgw.pl